Barnesville, Minnesota
Current Conditions -  °F | °C
As of 5:52 PM on Sunday 21 Dec 2014 (Local Time) from KJKJ Reporting Station
Overcast Overcast  
Wind Chill: 27°   Ceiling: 800
Heat Index: 34°   Visibility: 7mi
Dew Point: 34°   Wind: 8mph
Humidity: 100%   Direction: 140°SE
Pressure: 29.59"   Gusts: NA
Location:  46.65°N, 96.42°W
Report Text: KJKJ 212352Z AUTO 14007KT 7SM OVC008 01/01 A2959 RMK AO2
Loading
Personal Weather Stations






























Interactive Weather Map New forecast layout! Learn more

10-Day Weather Forecast

Advertisements
Track Severe Weather on mobile